sensor_id;sensor_type;location;lat;lon;timestamp;pressure;altitude;pressure_sealevel;temperature;humidity
41686;BME280;27370;42.764;23.432;2022-08-19T00:00:19;95306.66;;;18.46;100.00
41686;BME280;27370;42.764;23.432;2022-08-19T00:02:45;95301.03;;;18.16;100.00
41686;BME280;27370;42.764;23.432;2022-08-19T00:05:13;95305.00;;;18.15;100.00
41686;BME280;27370;42.764;23.432;2022-08-19T00:07:39;95310.19;;;18.04;100.00
41686;BME280;27370;42.764;23.432;2022-08-19T00:10:12;95310.16;;;18.13;100.00
41686;BME280;27370;42.764;23.432;2022-08-19T00:12:38;95317.78;;;18.09;100.00
41686;BME280;27370;42.764;23.432;2022-08-19T00:15:13;95316.06;;;18.21;100.00
41686;BME280;27370;42.764;23.432;2022-08-19T00:17:42;95313.78;;;18.19;100.00
41686;BME280;27370;42.764;23.432;2022-08-19T00:20:10;95319.00;;;18.08;100.00
41686;BME280;27370;42.764;23.432;2022-08-19T00:22:37;95314.63;;;18.01;100.00
41686;BME280;27370;42.764;23.432;2022-08-19T00:25:03;95316.44;;;18.04;100.00
41686;BME280;27370;42.764;23.432;2022-08-19T00:27:29;95312.03;;;17.98;100.00
41686;BME280;27370;42.764;23.432;2022-08-19T00:29:54;95313.56;;;17.99;100.00
41686;BME280;27370;42.764;23.432;2022-08-19T00:32:20;95317.53;;;17.98;100.00
41686;BME280;27370;42.764;23.432;2022-08-19T00:34:46;95305.28;;;18.08;100.00
41686;BME280;27370;42.764;23.432;2022-08-19T00:37:11;95306.06;;;18.09;100.00
41686;BME280;27370;42.764;23.432;2022-08-19T00:39:37;95308.66;;;18.03;100.00
41686;BME280;27370;42.764;23.432;2022-08-19T00:42:03;95316.34;;;17.90;100.00
41686;BME280;27370;42.764;23.432;2022-08-19T00:44:29;95303.88;;;17.80;100.00
41686;BME280;27370;42.764;23.432;2022-08-19T00:46:57;95305.84;;;17.79;100.00
41686;BME280;27370;42.764;23.432;2022-08-19T00:52:16;95301.75;;;17.65;100.00
41686;BME280;27370;42.764;23.432;2022-08-19T00:54:43;95308.47;;;17.73;100.00
41686;BME280;27370;42.764;23.432;2022-08-19T00:57:13;95307.56;;;17.67;100.00
41686;BME280;27370;42.764;23.432;2022-08-19T00:59:42;95308.31;;;17.68;100.00
41686;BME280;27370;42.764;23.432;2022-08-19T01:02:10;95303.16;;;17.52;100.00
41686;BME280;27370;42.764;23.432;2022-08-19T01:04:36;95311.34;;;17.52;100.00
41686;BME280;27370;42.764;23.432;2022-08-19T01:07:02;95311.81;;;17.50;100.00
41686;BME280;27370;42.764;23.432;2022-08-19T01:09:28;95309.06;;;17.59;100.00
41686;BME280;27370;42.764;23.432;2022-08-19T01:11:54;95296.16;;;17.51;100.00
41686;BME280;27370;42.764;23.432;2022-08-19T01:14:21;95301.63;;;17.51;100.00
41686;BME280;27370;42.764;23.432;2022-08-19T01:16:48;95295.69;;;17.52;100.00
41686;BME280;27370;42.764;23.432;2022-08-19T01:19:28;95298.75;;;17.45;100.00
41686;BME280;27370;42.764;23.432;2022-08-19T01:24:36;95301.94;;;17.43;100.00
41686;BME280;27370;42.764;23.432;2022-08-19T01:27:04;95299.97;;;17.35;100.00
41686;BME280;27370;42.764;23.432;2022-08-19T01:29:30;95299.53;;;17.27;100.00
41686;BME280;27370;42.764;23.432;2022-08-19T01:31:55;95297.38;;;17.40;100.00
41686;BME280;27370;42.764;23.432;2022-08-19T01:34:21;95308.78;;;17.48;100.00
41686;BME280;27370;42.764;23.432;2022-08-19T01:36:47;95301.78;;;17.38;100.00
41686;BME280;27370;42.764;23.432;2022-08-19T01:39:22;95304.69;;;17.25;100.00
41686;BME280;27370;42.764;23.432;2022-08-19T01:41:48;95297.09;;;17.11;100.00
41686;BME280;27370;42.764;23.432;2022-08-19T01:44:15;95302.56;;;17.11;100.00
41686;BME280;27370;42.764;23.432;2022-08-19T01:46:41;95304.06;;;17.12;100.00
41686;BME280;27370;42.764;23.432;2022-08-19T01:49:09;95305.28;;;16.93;100.00
41686;BME280;27370;42.764;23.432;2022-08-19T01:51:36;95307.22;;;16.74;100.00
41686;BME280;27370;42.764;23.432;2022-08-19T01:54:02;95311.34;;;16.88;100.00
41686;BME280;27370;42.764;23.432;2022-08-19T01:56:28;95307.88;;;16.87;100.00
41686;BME280;27370;42.764;23.432;2022-08-19T01:58:58;95317.91;;;16.99;100.00
41686;BME280;27370;42.764;23.432;2022-08-19T02:01:25;95313.47;;;16.83;100.00
41686;BME280;27370;42.764;23.432;2022-08-19T02:03:50;95322.75;;;16.77;100.00
41686;BME280;27370;42.764;23.432;2022-08-19T02:06:19;95313.19;;;16.81;100.00
41686;BME280;27370;42.764;23.432;2022-08-19T02:08:45;95307.88;;;16.78;100.00
41686;BME280;27370;42.764;23.432;2022-08-19T02:11:19;95311.28;;;16.60;100.00
41686;BME280;27370;42.764;23.432;2022-08-19T02:13:45;95313.03;;;16.76;100.00
41686;BME280;27370;42.764;23.432;2022-08-19T02:16:11;95314.06;;;16.69;100.00
41686;BME280;27370;42.764;23.432;2022-08-19T02:18:36;95318.31;;;16.70;100.00
41686;BME280;27370;42.764;23.432;2022-08-19T02:21:02;95321.16;;;16.58;100.00
41686;BME280;27370;42.764;23.432;2022-08-19T02:23:27;95328.19;;;16.68;100.00
41686;BME280;27370;42.764;23.432;2022-08-19T02:25:53;95324.50;;;16.52;100.00
41686;BME280;27370;42.764;23.432;2022-08-19T02:28:18;95316.69;;;16.42;100.00
41686;BME280;27370;42.764;23.432;2022-08-19T02:30:45;95321.56;;;16.38;100.00
41686;BME280;27370;42.764;23.432;2022-08-19T02:33:10;95316.31;;;16.21;100.00
41686;BME280;27370;42.764;23.432;2022-08-19T02:35:36;95317.25;;;16.28;100.00
41686;BME280;27370;42.764;23.432;2022-08-19T02:38:01;95321.25;;;16.45;100.00
41686;BME280;27370;42.764;23.432;2022-08-19T02:40:50;95315.41;;;16.15;100.00
41686;BME280;27370;42.764;23.432;2022-08-19T02:43:18;95314.69;;;15.93;100.00
41686;BME280;27370;42.764;23.432;2022-08-19T02:45:46;95311.06;;;15.96;100.00
41686;BME280;27370;42.764;23.432;2022-08-19T02:48:15;95310.34;;;16.05;100.00
41686;BME280;27370;42.764;23.432;2022-08-19T02:50:43;95313.16;;;16.23;100.00
41686;BME280;27370;42.764;23.432;2022-08-19T02:53:09;95316.03;;;16.29;100.00
41686;BME280;27370;42.764;23.432;2022-08-19T02:55:35;95318.97;;;16.34;100.00
41686;BME280;27370;42.764;23.432;2022-08-19T02:58:00;95318.00;;;16.19;100.00
41686;BME280;27370;42.764;23.432;2022-08-19T03:00:27;95321.03;;;16.21;100.00
41686;BME280;27370;42.764;23.432;2022-08-19T03:02:53;95322.56;;;16.22;100.00
41686;BME280;27370;42.764;23.432;2022-08-19T03:05:19;95316.84;;;16.38;100.00
41686;BME280;27370;42.764;23.432;2022-08-19T03:07:44;95319.97;;;16.28;100.00
41686;BME280;27370;42.764;23.432;2022-08-19T03:10:11;95321.47;;;16.19;100.00
41686;BME280;27370;42.764;23.432;2022-08-19T03:12:38;95318.22;;;16.34;100.00
41686;BME280;27370;42.764;23.432;2022-08-19T03:15:07;95317.31;;;16.37;100.00
41686;BME280;27370;42.764;23.432;2022-08-19T03:17:34;95316.00;;;16.10;100.00
41686;BME280;27370;42.764;23.432;2022-08-19T03:19:59;95315.34;;;16.06;100.00
41686;BME280;27370;42.764;23.432;2022-08-19T03:22:25;95306.44;;;15.84;100.00
41686;BME280;27370;42.764;23.432;2022-08-19T03:24:50;95307.84;;;15.88;100.00
41686;BME280;27370;42.764;23.432;2022-08-19T03:27:16;95311.38;;;15.98;100.00
41686;BME280;27370;42.764;23.432;2022-08-19T03:29:43;95305.19;;;16.07;100.00
41686;BME280;27370;42.764;23.432;2022-08-19T03:32:08;95310.53;;;16.10;100.00
41686;BME280;27370;42.764;23.432;2022-08-19T03:34:36;95320.38;;;16.08;100.00
41686;BME280;27370;42.764;23.432;2022-08-19T03:37:06;95330.09;;;16.09;100.00
41686;BME280;27370;42.764;23.432;2022-08-19T03:39:31;95321.09;;;15.99;100.00
41686;BME280;27370;42.764;23.432;2022-08-19T03:41:57;95327.88;;;15.85;100.00
41686;BME280;27370;42.764;23.432;2022-08-19T03:44:26;95333.38;;;15.95;100.00
41686;BME280;27370;42.764;23.432;2022-08-19T03:46:54;95337.63;;;15.96;100.00
41686;BME280;27370;42.764;23.432;2022-08-19T03:49:21;95344.59;;;15.97;100.00
41686;BME280;27370;42.764;23.432;2022-08-19T03:51:48;95352.50;;;16.04;100.00
41686;BME280;27370;42.764;23.432;2022-08-19T03:54:16;95348.41;;;15.99;100.00
41686;BME280;27370;42.764;23.432;2022-08-19T03:56:43;95350.59;;;16.13;100.00
41686;BME280;27370;42.764;23.432;2022-08-19T03:59:13;95352.56;;;16.13;100.00
41686;BME280;27370;42.764;23.432;2022-08-19T04:01:39;95354.09;;;16.14;100.00
41686;BME280;27370;42.764;23.432;2022-08-19T04:04:05;95355.75;;;16.11;100.00
41686;BME280;27370;42.764;23.432;2022-08-19T04:06:33;95364.75;;;16.21;100.00
41686;BME280;27370;42.764;23.432;2022-08-19T04:09:02;95356.25;;;16.28;100.00
41686;BME280;27370;42.764;23.432;2022-08-19T04:11:34;95366.63;;;16.33;100.00
41686;BME280;27370;42.764;23.432;2022-08-19T04:14:01;95364.00;;;16.61;100.00
41686;BME280;27370;42.764;23.432;2022-08-19T04:16:27;95366.56;;;16.64;100.00
41686;BME280;27370;42.764;23.432;2022-08-19T04:18:58;95369.47;;;16.61;100.00
41686;BME280;27370;42.764;23.432;2022-08-19T04:21:25;95369.91;;;16.59;100.00
41686;BME280;27370;42.764;23.432;2022-08-19T04:23:52;95377.19;;;16.53;100.00
41686;BME280;27370;42.764;23.432;2022-08-19T04:26:22;95370.00;;;16.77;100.00
41686;BME280;27370;42.764;23.432;2022-08-19T04:28:48;95372.44;;;16.84;100.00
41686;BME280;27370;42.764;23.432;2022-08-19T04:31:16;95368.66;;;17.00;100.00
41686;BME280;27370;42.764;23.432;2022-08-19T04:33:42;95372.50;;;17.21;100.00
41686;BME280;27370;42.764;23.432;2022-08-19T04:36:14;95363.97;;;17.28;100.00
41686;BME280;27370;42.764;23.432;2022-08-19T04:38:41;95371.72;;;17.39;100.00
41686;BME280;27370;42.764;23.432;2022-08-19T04:41:06;95366.56;;;17.50;100.00
41686;BME280;27370;42.764;23.432;2022-08-19T04:43:50;95366.59;;;17.68;100.00
41686;BME280;27370;42.764;23.432;2022-08-19T04:46:16;95362.16;;;17.80;100.00
41686;BME280;27370;42.764;23.432;2022-08-19T04:48:42;95361.50;;;18.03;100.00
41686;BME280;27370;42.764;23.432;2022-08-19T04:51:10;95359.47;;;18.22;100.00
41686;BME280;27370;42.764;23.432;2022-08-19T04:53:38;95363.81;;;18.38;100.00
41686;BME280;27370;42.764;23.432;2022-08-19T04:56:10;95375.34;;;18.51;100.00
41686;BME280;27370;42.764;23.432;2022-08-19T04:58:37;95365.41;;;18.63;100.00
41686;BME280;27370;42.764;23.432;2022-08-19T05:01:03;95372.50;;;18.79;100.00
41686;BME280;27370;42.764;23.432;2022-08-19T05:03:29;95370.41;;;18.97;100.00
41686;BME280;27370;42.764;23.432;2022-08-19T05:06:07;95373.78;;;19.16;100.00
41686;BME280;27370;42.764;23.432;2022-08-19T05:08:34;95386.63;;;19.34;100.00
41686;BME280;27370;42.764;23.432;2022-08-19T05:11:00;95373.00;;;19.40;100.00
41686;BME280;27370;42.764;23.432;2022-08-19T05:13:26;95383.19;;;19.48;100.00
41686;BME280;27370;42.764;23.432;2022-08-19T05:15:59;95386.44;;;19.62;100.00
41686;BME280;27370;42.764;23.432;2022-08-19T05:18:25;95389.88;;;19.71;100.00
41686;BME280;27370;42.764;23.432;2022-08-19T05:21:12;95386.19;;;19.89;100.00
41686;BME280;27370;42.764;23.432;2022-08-19T05:23:56;95382.44;;;20.01;100.00
41686;BME280;27370;42.764;23.432;2022-08-19T05:26:23;95382.44;;;20.16;100.00
41686;BME280;27370;42.764;23.432;2022-08-19T05:28:54;95382.81;;;20.24;100.00
41686;BME280;27370;42.764;23.432;2022-08-19T05:31:21;95384.16;;;20.43;100.00
41686;BME280;27370;42.764;23.432;2022-08-19T05:33:47;95379.56;;;20.55;100.00
41686;BME280;27370;42.764;23.432;2022-08-19T05:36:13;95371.09;;;20.58;100.00
41686;BME280;27370;42.764;23.432;2022-08-19T05:38:39;95372.28;;;20.87;100.00
41686;BME280;27370;42.764;23.432;2022-08-19T05:41:14;95378.66;;;21.13;100.00
41686;BME280;27370;42.764;23.432;2022-08-19T05:43:42;95382.78;;;21.23;100.00
41686;BME280;27370;42.764;23.432;2022-08-19T05:46:07;95379.94;;;21.32;100.00
41686;BME280;27370;42.764;23.432;2022-08-19T05:48:35;95376.75;;;21.39;100.00
41686;BME280;27370;42.764;23.432;2022-08-19T05:51:07;95381.34;;;21.48;100.00
41686;BME280;27370;42.764;23.432;2022-08-19T05:53:34;95390.56;;;21.65;100.00
41686;BME280;27370;42.764;23.432;2022-08-19T05:56:08;95380.72;;;21.79;100.00
41686;BME280;27370;42.764;23.432;2022-08-19T05:58:35;95378.59;;;21.94;98.86
41686;BME280;27370;42.764;23.432;2022-08-19T06:01:01;95379.53;;;22.12;96.34
41686;BME280;27370;42.764;23.432;2022-08-19T06:03:34;95379.13;;;22.19;97.19
41686;BME280;27370;42.764;23.432;2022-08-19T06:06:01;95382.22;;;22.32;93.14
41686;BME280;27370;42.764;23.432;2022-08-19T06:08:27;95384.06;;;22.41;92.55
41686;BME280;27370;42.764;23.432;2022-08-19T06:10:53;95385.88;;;22.49;93.55
41686;BME280;27370;42.764;23.432;2022-08-19T06:13:19;95387.94;;;22.54;94.93
41686;BME280;27370;42.764;23.432;2022-08-19T06:15:45;95391.81;;;22.68;90.01
41686;BME280;27370;42.764;23.432;2022-08-19T06:18:14;95382.94;;;22.90;92.45
41686;BME280;27370;42.764;23.432;2022-08-19T06:20:41;95387.38;;;23.25;88.59
41686;BME280;27370;42.764;23.432;2022-08-19T06:23:08;95390.75;;;23.51;87.48
41686;BME280;27370;42.764;23.432;2022-08-19T06:25:35;95394.16;;;23.18;86.48
41686;BME280;27370;42.764;23.432;2022-08-19T06:28:01;95391.84;;;23.59;87.21
41686;BME280;27370;42.764;23.432;2022-08-19T06:30:26;95394.50;;;24.02;80.30
41686;BME280;27370;42.764;23.432;2022-08-19T06:32:52;95393.72;;;24.07;84.22
41686;BME280;27370;42.764;23.432;2022-08-19T06:35:18;95392.22;;;24.11;80.37
41686;BME280;27370;42.764;23.432;2022-08-19T06:37:43;95390.22;;;24.12;78.58
41686;BME280;27370;42.764;23.432;2022-08-19T06:40:10;95382.66;;;24.18;78.94
41686;BME280;27370;42.764;23.432;2022-08-19T06:42:36;95384.97;;;24.36;80.71
41686;BME280;27370;42.764;23.432;2022-08-19T06:45:04;95379.72;;;24.50;80.70
41686;BME280;27370;42.764;23.432;2022-08-19T06:47:30;95383.72;;;24.54;76.81
41686;BME280;27370;42.764;23.432;2022-08-19T06:49:58;95381.47;;;24.58;76.90
41686;BME280;27370;42.764;23.432;2022-08-19T06:52:32;95387.50;;;24.73;76.69
41686;BME280;27370;42.764;23.432;2022-08-19T06:54:59;95383.47;;;24.80;79.37
41686;BME280;27370;42.764;23.432;2022-08-19T06:57:25;95383.94;;;25.18;78.08
41686;BME280;27370;42.764;23.432;2022-08-19T06:59:51;95388.78;;;25.70;74.13
41686;BME280;27370;42.764;23.432;2022-08-19T07:02:17;95387.56;;;26.12;68.75
41686;BME280;27370;42.764;23.432;2022-08-19T07:04:43;95385.41;;;26.35;68.81
41686;BME280;27370;42.764;23.432;2022-08-19T07:07:11;95383.25;;;26.52;64.68
41686;BME280;27370;42.764;23.432;2022-08-19T07:09:40;95384.06;;;26.77;67.93
41686;BME280;27370;42.764;23.432;2022-08-19T07:12:08;95380.44;;;27.12;63.82
41686;BME280;27370;42.764;23.432;2022-08-19T07:14:36;95381.25;;;27.07;64.04
41686;BME280;27370;42.764;23.432;2022-08-19T07:17:06;95382.25;;;26.79;67.08
41686;BME280;27370;42.764;23.432;2022-08-19T07:19:34;95377.59;;;26.63;66.97
41686;BME280;27370;42.764;23.432;2022-08-19T07:22:01;95371.66;;;26.48;65.52
41686;BME280;27370;42.764;23.432;2022-08-19T07:24:29;95377.16;;;26.18;64.55
41686;BME280;27370;42.764;23.432;2022-08-19T07:26:57;95378.47;;;26.11;66.41
41686;BME280;27370;42.764;23.432;2022-08-19T07:29:26;95380.78;;;26.07;65.63
41686;BME280;27370;42.764;23.432;2022-08-19T07:31:54;95377.63;;;26.28;63.17
41686;BME280;27370;42.764;23.432;2022-08-19T07:34:22;95371.91;;;26.14;65.61
41686;BME280;27370;42.764;23.432;2022-08-19T07:36:49;95370.44;;;26.02;68.54
41686;BME280;27370;42.764;23.432;2022-08-19T07:39:18;95364.38;;;26.45;63.18
41686;BME280;27370;42.764;23.432;2022-08-19T07:41:45;95365.03;;;26.57;59.47
41686;BME280;27370;42.764;23.432;2022-08-19T07:44:12;95366.97;;;26.67;64.32
41686;BME280;27370;42.764;23.432;2022-08-19T07:46:40;95367.84;;;26.81;64.28
41686;BME280;27370;42.764;23.432;2022-08-19T07:49:07;95370.97;;;27.02;57.72
41686;BME280;27370;42.764;23.432;2022-08-19T07:51:34;95370.47;;;26.98;62.87
41686;BME280;27370;42.764;23.432;2022-08-19T07:54:00;95373.97;;;27.04;58.61
41686;BME280;27370;42.764;23.432;2022-08-19T07:56:25;95369.91;;;27.29;55.43
41686;BME280;27370;42.764;23.432;2022-08-19T07:58:52;95369.56;;;27.14;58.06
41686;BME280;27370;42.764;23.432;2022-08-19T08:01:21;95371.53;;;27.19;56.05
41686;BME280;27370;42.764;23.432;2022-08-19T08:03:49;95368.94;;;27.27;55.74
41686;BME280;27370;42.764;23.432;2022-08-19T08:06:34;95363.22;;;27.38;53.67
41686;BME280;27370;42.764;23.432;2022-08-19T08:09:25;95368.03;;;27.37;55.48
41686;BME280;27370;42.764;23.432;2022-08-19T08:11:58;95366.78;;;27.57;55.80
41686;BME280;27370;42.764;23.432;2022-08-19T08:14:28;95368.56;;;27.79;55.79
41686;BME280;27370;42.764;23.432;2022-08-19T08:16:54;95371.03;;;27.83;58.52
41686;BME280;27370;42.764;23.432;2022-08-19T08:19:22;95358.03;;;28.10;55.59
41686;BME280;27370;42.764;23.432;2022-08-19T08:21:49;95355.47;;;28.12;59.27
41686;BME280;27370;42.764;23.432;2022-08-19T08:24:15;95358.53;;;28.27;58.58
41686;BME280;27370;42.764;23.432;2022-08-19T08:26:41;95351.78;;;28.54;55.78
41686;BME280;27370;42.764;23.432;2022-08-19T08:29:10;95343.06;;;28.77;56.32
41686;BME280;27370;42.764;23.432;2022-08-19T08:31:37;95356.09;;;28.68;51.21
41686;BME280;27370;42.764;23.432;2022-08-19T08:34:03;95352.88;;;28.64;53.89
41686;BME280;27370;42.764;23.432;2022-08-19T08:36:29;95342.47;;;28.97;51.07
41686;BME280;27370;42.764;23.432;2022-08-19T08:38:59;95343.31;;;29.05;57.12
41686;BME280;27370;42.764;23.432;2022-08-19T08:44:05;95335.78;;;29.40;57.74
41686;BME280;27370;42.764;23.432;2022-08-19T08:46:37;95339.66;;;29.63;54.82
41686;BME280;27370;42.764;23.432;2022-08-19T08:51:54;95332.69;;;29.70;52.25
41686;BME280;27370;42.764;23.432;2022-08-19T08:54:24;95334.03;;;29.90;50.89
41686;BME280;27370;42.764;23.432;2022-08-19T08:56:53;95330.53;;;30.10;49.85
41686;BME280;27370;42.764;23.432;2022-08-19T08:59:23;95326.13;;;30.01;49.63
41686;BME280;27370;42.764;23.432;2022-08-19T09:01:50;95323.13;;;30.12;51.99
41686;BME280;27370;42.764;23.432;2022-08-19T09:04:16;95316.66;;;30.17;50.91
41686;BME280;27370;42.764;23.432;2022-08-19T09:09:41;95312.78;;;30.41;49.50
41686;BME280;27370;42.764;23.432;2022-08-19T09:12:16;95315.97;;;30.25;46.41
41686;BME280;27370;42.764;23.432;2022-08-19T09:14:50;95307.72;;;30.40;47.48
41686;BME280;27370;42.764;23.432;2022-08-19T09:17:17;95309.25;;;30.62;49.39
41686;BME280;27370;42.764;23.432;2022-08-19T09:19:50;95302.75;;;30.95;47.33
41686;BME280;27370;42.764;23.432;2022-08-19T09:22:16;95300.81;;;31.11;44.98
41686;BME280;27370;42.764;23.432;2022-08-19T09:24:41;95304.13;;;31.30;46.86
41686;BME280;27370;42.764;23.432;2022-08-19T09:27:07;95295.94;;;31.32;46.13
41686;BME280;27370;42.764;23.432;2022-08-19T09:29:32;95296.97;;;31.58;45.29
41686;BME280;27370;42.764;23.432;2022-08-19T09:31:58;95292.13;;;31.66;43.61
41686;BME280;27370;42.764;23.432;2022-08-19T09:34:24;95294.09;;;31.79;43.55
41686;BME280;27370;42.764;23.432;2022-08-19T09:36:50;95292.28;;;32.04;42.97
41686;BME280;27370;42.764;23.432;2022-08-19T09:39:18;95288.88;;;31.90;42.91
41686;BME280;27370;42.764;23.432;2022-08-19T09:41:43;95284.38;;;31.80;41.35
41686;BME280;27370;42.764;23.432;2022-08-19T09:44:09;95285.00;;;32.01;41.62
41686;BME280;27370;42.764;23.432;2022-08-19T09:46:37;95284.56;;;31.82;41.37
41686;BME280;27370;42.764;23.432;2022-08-19T09:49:02;95280.31;;;31.96;42.08
41686;BME280;27370;42.764;23.432;2022-08-19T09:51:30;95280.50;;;32.06;40.36
41686;BME280;27370;42.764;23.432;2022-08-19T09:53:59;95277.53;;;32.11;41.64
41686;BME280;27370;42.764;23.432;2022-08-19T09:56:25;95266.56;;;32.36;39.60
41686;BME280;27370;42.764;23.432;2022-08-19T09:58:51;95267.31;;;32.44;38.47
41686;BME280;27370;42.764;23.432;2022-08-19T10:01:22;95265.06;;;32.73;39.54
41686;BME280;27370;42.764;23.432;2022-08-19T10:03:51;95260.94;;;32.74;36.19
41686;BME280;27370;42.764;23.432;2022-08-19T10:06:19;95257.22;;;32.79;39.03
41686;BME280;27370;42.764;23.432;2022-08-19T10:08:45;95255.88;;;32.96;35.99
41686;BME280;27370;42.764;23.432;2022-08-19T10:11:11;95249.09;;;33.14;35.23
41686;BME280;27370;42.764;23.432;2022-08-19T10:13:37;95244.59;;;33.18;35.88
41686;BME280;27370;42.764;23.432;2022-08-19T10:16:06;95243.63;;;33.31;37.08
41686;BME280;27370;42.764;23.432;2022-08-19T10:18:33;95242.44;;;33.49;34.49
41686;BME280;27370;42.764;23.432;2022-08-19T10:21:29;95238.69;;;33.55;34.48
41686;BME280;27370;42.764;23.432;2022-08-19T10:23:58;95241.03;;;33.73;34.35
41686;BME280;27370;42.764;23.432;2022-08-19T10:26:25;95241.16;;;33.83;35.40
41686;BME280;27370;42.764;23.432;2022-08-19T10:28:52;95235.06;;;34.02;35.92
41686;BME280;27370;42.764;23.432;2022-08-19T10:31:23;95232.09;;;34.25;34.25
41686;BME280;27370;42.764;23.432;2022-08-19T10:33:50;95228.28;;;34.30;33.39
41686;BME280;27370;42.764;23.432;2022-08-19T10:36:20;95230.69;;;34.33;32.21
41686;BME280;27370;42.764;23.432;2022-08-19T10:38:52;95224.56;;;34.27;31.31
41686;BME280;27370;42.764;23.432;2022-08-19T10:41:23;95220.94;;;34.59;32.28
41686;BME280;27370;42.764;23.432;2022-08-19T10:43:53;95222.59;;;34.62;33.37
41686;BME280;27370;42.764;23.432;2022-08-19T10:46:21;95230.44;;;34.47;32.42
41686;BME280;27370;42.764;23.432;2022-08-19T10:48:47;95219.19;;;34.47;31.92
41686;BME280;27370;42.764;23.432;2022-08-19T10:51:13;95213.91;;;34.51;33.20
41686;BME280;27370;42.764;23.432;2022-08-19T10:53:58;95215.31;;;34.59;32.12
41686;BME280;27370;42.764;23.432;2022-08-19T10:56:24;95218.81;;;34.67;32.37
41686;BME280;27370;42.764;23.432;2022-08-19T10:59:08;95213.53;;;34.72;32.87
41686;BME280;27370;42.764;23.432;2022-08-19T11:01:34;95219.81;;;34.80;31.98
41686;BME280;27370;42.764;23.432;2022-08-19T11:04:01;95215.28;;;35.02;32.47
41686;BME280;27370;42.764;23.432;2022-08-19T11:06:27;95208.50;;;35.05;31.58
41686;BME280;27370;42.764;23.432;2022-08-19T11:08:54;95214.72;;;35.03;32.04
41686;BME280;27370;42.764;23.432;2022-08-19T11:11:20;95205.09;;;35.23;32.73
41686;BME280;27370;42.764;23.432;2022-08-19T11:13:47;95215.84;;;35.52;30.83
41686;BME280;27370;42.764;23.432;2022-08-19T11:16:15;95210.56;;;35.39;29.90
41686;BME280;27370;42.764;23.432;2022-08-19T11:18:45;95200.16;;;35.14;30.32
41686;BME280;27370;42.764;23.432;2022-08-19T11:21:20;95204.34;;;35.23;30.71
41686;BME280;27370;42.764;23.432;2022-08-19T11:23:48;95203.09;;;35.34;29.97
41686;BME280;27370;42.764;23.432;2022-08-19T11:26:14;95201.97;;;35.37;30.97
41686;BME280;27370;42.764;23.432;2022-08-19T11:28:41;95205.38;;;35.35;30.13
41686;BME280;27370;42.764;23.432;2022-08-19T11:31:15;95202.91;;;35.49;31.81
41686;BME280;27370;42.764;23.432;2022-08-19T11:33:41;95195.56;;;35.53;31.52
41686;BME280;27370;42.764;23.432;2022-08-19T11:36:07;95191.34;;;35.72;28.34
41686;BME280;27370;42.764;23.432;2022-08-19T11:38:34;95189.97;;;35.63;29.86
41686;BME280;27370;42.764;23.432;2022-08-19T11:41:04;95177.69;;;35.68;29.59
41686;BME280;27370;42.764;23.432;2022-08-19T11:43:31;95177.97;;;35.89;29.34
41686;BME280;27370;42.764;23.432;2022-08-19T11:45:57;95177.00;;;36.04;29.76
41686;BME280;27370;42.764;23.432;2022-08-19T11:48:23;95178.81;;;36.19;28.39
41686;BME280;27370;42.764;23.432;2022-08-19T11:50:50;95173.31;;;36.21;29.03
41686;BME280;27370;42.764;23.432;2022-08-19T11:53:19;95172.00;;;36.22;29.79
41686;BME280;27370;42.764;23.432;2022-08-19T11:55:48;95170.59;;;36.40;29.58
41686;BME280;27370;42.764;23.432;2022-08-19T11:58:16;95171.84;;;36.20;28.21
41686;BME280;27370;42.764;23.432;2022-08-19T12:00:43;95167.81;;;36.13;28.95
41686;BME280;27370;42.764;23.432;2022-08-19T12:03:12;95165.94;;;36.26;29.51
41686;BME280;27370;42.764;23.432;2022-08-19T12:05:39;95161.19;;;36.28;29.01
41686;BME280;27370;42.764;23.432;2022-08-19T12:08:05;95158.78;;;36.15;28.96
41686;BME280;27370;42.764;23.432;2022-08-19T12:10:32;95158.66;;;36.23;29.02
41686;BME280;27370;42.764;23.432;2022-08-19T12:12:58;95150.56;;;36.56;28.64
41686;BME280;27370;42.764;23.432;2022-08-19T12:15:23;95134.72;;;36.70;27.32
41686;BME280;27370;42.764;23.432;2022-08-19T12:17:49;95153.72;;;36.13;27.64
41686;BME280;27370;42.764;23.432;2022-08-19T12:20:14;95148.09;;;36.13;28.64
41686;BME280;27370;42.764;23.432;2022-08-19T12:22:42;95148.38;;;36.08;27.45
41686;BME280;27370;42.764;23.432;2022-08-19T12:25:10;95140.91;;;35.93;28.73
41686;BME280;27370;42.764;23.432;2022-08-19T12:27:36;95132.59;;;35.95;28.22
41686;BME280;27370;42.764;23.432;2022-08-19T12:30:03;95131.41;;;35.98;28.28
41686;BME280;27370;42.764;23.432;2022-08-19T12:32:29;95121.50;;;36.07;29.31
41686;BME280;27370;42.764;23.432;2022-08-19T12:34:54;95133.34;;;35.96;27.70
41686;BME280;27370;42.764;23.432;2022-08-19T12:37:20;95130.44;;;36.13;28.67
41686;BME280;27370;42.764;23.432;2022-08-19T12:39:45;95131.75;;;36.12;28.19
41686;BME280;27370;42.764;23.432;2022-08-19T12:42:13;95131.34;;;36.25;29.59
41686;BME280;27370;42.764;23.432;2022-08-19T12:44:40;95120.38;;;36.29;27.62
41686;BME280;27370;42.764;23.432;2022-08-19T12:47:07;95125.94;;;36.46;27.25
41686;BME280;27370;42.764;23.432;2022-08-19T12:49:34;95125.78;;;36.44;27.39
41686;BME280;27370;42.764;23.432;2022-08-19T12:52:05;95125.78;;;36.44;27.22
41686;BME280;27370;42.764;23.432;2022-08-19T12:54:31;95125.03;;;36.63;29.12
41686;BME280;27370;42.764;23.432;2022-08-19T12:56:57;95116.72;;;36.75;26.73
41686;BME280;27370;42.764;23.432;2022-08-19T12:59:23;95109.75;;;37.05;28.41
41686;BME280;27370;42.764;23.432;2022-08-19T13:01:49;95113.28;;;37.34;27.77